• Join FlightAware (Why Join?)
  • Login
  • US Flag 
08:47PM EDT


 

Airport Tracker/Info


-or-


 

Live Flight TrackerFlight Track Log ✈ TAM3211 ✈ 01-Jul-2013 ✈ SBCF / CNF - SBSP / CGH

Flight Track Log - Related Links

Times and Time Zones

All times are in EDT time to prevent confusion due to time zone crossing. See the TAM3211 flight status page for this flight to view local times or setup timezone preferences in your user account.

Time Position Orientation Groundspeed Altitude Reporting Facility
EDT Latitude Longitude Course Direction KTS MPH feet Rate Location/Type
05:22AM -20.8975 -44.8002 212° Southwest  Level Estimated
05:23AM -20.9523 -44.8367 212° Southwest  Level Estimated
05:24AM -21.0072 -44.8732 212° Southwest  Level Estimated
05:25AM -21.0620 -44.9097 212° Southwest  Level Estimated
05:26AM -21.1168 -44.9462 212° Southwest  Level Estimated
05:27AM -21.1716 -44.9828 212° Southwest  Level Estimated
05:28AM -21.2265 -45.0194 212° Southwest  Level Estimated
05:29AM -21.2813 -45.0560 212° Southwest  Level Estimated
05:30AM -21.3361 -45.0926 212° Southwest  Level Estimated
05:31AM -21.3909 -45.1293 212° Southwest  Level Estimated
05:32AM -21.4456 -45.1660 212° Southwest  Level Estimated
05:33AM -21.5004 -45.2027 212° Southwest  Level Estimated
05:34AM -21.5552 -45.2395 212° Southwest  Level Estimated
05:35AM -21.6099 -45.2763 212° Southwest  Level Estimated
05:36AM -21.6647 -45.3131 212° Southwest  Level Estimated
05:37AM -21.7194 -45.3499 212° Southwest  Level Estimated
05:38AM -21.7742 -45.3868 212° Southwest  Level Estimated
05:39AM -21.8289 -45.4237 212° Southwest  Level Estimated
05:40AM -21.8836 -45.4606 212° Southwest  Level Estimated
05:41AM -21.9383 -45.4976 212° Southwest  Level Estimated
05:42AM -21.9930 -45.5346 212° Southwest  Level Estimated
05:43AM -22.0477 -45.5716 212° Southwest  Level Estimated
05:44AM -22.1024 -45.6086 212° Southwest  Level Estimated
05:45AM -22.1571 -45.6457 212° Southwest  Level Estimated
05:46AM -22.2117 -45.6828 212° Southwest  Level Estimated
05:47AM -22.2664 -45.7199 212° Southwest  Level Estimated
05:48AM -22.3211 -45.7571 212° Southwest  Level Estimated
05:49AM -22.3757 -45.7942 212° Southwest  Level Estimated
05:50AM -22.4303 -45.8315 212° Southwest  Level Estimated
05:51AM -22.4849 -45.8687 212° Southwest  Level Estimated
05:52AM -22.5396 -45.9060 212° Southwest  Level Estimated
05:53AM -22.5942 -45.9433 212° Southwest  Level Estimated
05:54AM -22.6488 -45.9806 212° Southwest  Level Estimated
05:55AM -22.7034 -46.0179 212° Southwest  Level Estimated
05:56AM -22.7579 -46.0553 212° Southwest  Level Estimated
05:57AM -22.8125 -46.0928 212° Southwest  Level Estimated
05:58AM -22.8671 -46.1302 212° Southwest  Level Estimated
05:59AM -22.9216 -46.1677 212° Southwest  Level Estimated
06:00AM -22.9762 -46.2052 212° Southwest  Level Estimated
06:01AM -23.0460 -46.2533 212° Southwest  Level Estimated
06:02AM -23.1159 -46.3014 212° Southwest  Level Estimated
06:03AM -23.1857 -46.3496 212° Southwest  Level Estimated
06:04AM -23.2555 -46.3979 212° Southwest  Level Estimated
06:05AM -23.3253 -46.4461 212° Southwest  Level Estimated
06:06AM -23.3951 -46.4945 212° Southwest  Level Estimated
06:07AM -23.4648 -46.5429 212° Southwest  Level Estimated
06:08AM -23.5346 -46.5913 212° Southwest  Level Estimated
06:09AM -23.6043 -46.6398 213° Southwest  Level Estimated
06:10AM -23.6267 -46.6554 213° Southwest  Level Estimated
06:11AM -23.6267 -46.6554 114° Southeast  Level Estimated
06:12AM -23.6267 -46.6554 114° Southeast  Level Estimated